Bruce Crossing, Michigan
Current Conditions -  °F | °C
As of 11:15 PM on Sunday 25 Jan 2015 (Local Time) from KLNL Reporting Station
Clear Clear  
Wind Chill: -1°   Ceiling: Unl
Heat Index: -1°   Visibility: 10mi
Dew Point: -5°   Wind: 0mph
Humidity: 84%   Direction: NA
Pressure: 29.96"   Gusts: NA
Location:  46.53°N, 89.18°W
Report Text: KLNL 260415Z AUTO 00000KT 10SM CLR M18/M20 A2996 RMK AO2 T11831204
Loading
Personal Weather Stations






























Interactive Weather Map New forecast layout! Learn more

10-Day Weather Forecast

Advertisements
Track Severe Weather on mobile